Airfield :
LOGIN :

Register | Disclaimer

   EN    FR    IT 

 










Legend :    VFR   Marginal VFR   IFR   Intensive IFR   Very Intensive IFR
Visi :
Ceiling :
>= 8 km
>= 3000ft
5 to 8 km
1000 to 3000 ft
1500m to 5 km
500 to 1000 ft
800 to 1500m
200 to 500 ft
< 800m
< 200 ft
Symbols :   Thunderstorms  Fog  Heavy snow  Heavy precipitations  Wind > 20 kt
SIGMETs :     Misc.  Thunderstorms  Icing  Turbulence  Mountain Waves  Volcanic Ashes






- Airport Elevation : 622 ft
- IATA code : BRS


EGGD - Bristol Int.

CURRENT METAR :
  • 041220Z AUTO 26014KT 9999 BKN024 BKN031 16/10 Q1022

EXPIRED METARs :
  • 041150Z AUTO 25013KT 9999 BKN027 17/11 Q1022
  • 041120Z AUTO 26014KT 9999 SCT027 SCT034 17/10 Q1022
  • 041050Z AUTO 27013KT 9999 BKN024 BKN032 16/10 Q1022
  • 041020Z AUTO 27012KT 250V310 9999 FEW016 BKN021 BKN027 16/11 Q1022
  • 040950Z AUTO 27008KT 9999 SCT013 SCT018 BKN024 15/12 Q1022

TAF TAF EGGD
Valid from the 04 at 12:00 until the 05 at 12:00 UTC


041058Z 0412/0512 27012KT 9999 BKN030
ATIS : +44 1275 473 666



MET'MAP, your aeronautical weather chart ! - Copyright ORBIFLY December 2007 - Disclaimer

ORBIFLY MET'MAP TEAM :

Programming & Development : Alexandra Zaïnal
Original concept : Baudouin d'Aumeries
Technical & hardware support : Manuel Goepfert
Assistance : Marc-Olivier Méhu




SOURCES & CREDITS :

   NOAA